createdAt,value
2023-01-27T00:00:53.587Z,102496.22
2023-01-27T00:03:23.000Z,102533.69
2023-01-27T00:05:50.076Z,102523.06
2023-01-27T00:08:17.457Z,102529.34
2023-01-27T00:10:44.214Z,102508.47
2023-01-27T00:13:27.089Z,102535.81
2023-01-27T00:15:54.203Z,102522.56
2023-01-27T00:18:20.991Z,102529.53
2023-01-27T00:21:11.285Z,102508.47
2023-01-27T00:23:56.476Z,102528.91
2023-01-27T00:26:23.464Z,102519.94
2023-01-27T00:28:50.190Z,102528.50
2023-01-27T00:31:36.471Z,102534.88
2023-01-27T00:34:09.242Z,102543.94
2023-01-27T00:36:40.421Z,102538.22
2023-01-27T00:39:07.799Z,102536.03
2023-01-27T00:41:37.117Z,102540.66
2023-01-27T00:44:05.614Z,102520.47
2023-01-27T00:46:32.665Z,102543.56
2023-01-27T00:48:59.264Z,102527.03
2023-01-27T00:51:25.818Z,102542.91
2023-01-27T00:53:52.433Z,102526.31
2023-01-27T00:56:21.383Z,102537.94
2023-01-27T00:58:48.107Z,102537.13
2023-01-27T01:01:16.174Z,102544.97
2023-01-27T01:03:43.817Z,102552.22
2023-01-27T01:06:14.734Z,102534.22
2023-01-27T01:08:41.710Z,102528.88
2023-01-27T01:11:15.645Z,102524.47
2023-01-27T01:13:43.249Z,102529.09
2023-01-27T01:16:18.206Z,102541.53
2023-01-27T01:18:45.020Z,102549.72
2023-01-27T01:21:13.045Z,102558.03
2023-01-27T01:23:41.924Z,102553.63
2023-01-27T01:26:10.674Z,102528.19
2023-01-27T01:28:39.613Z,102561.53
2023-01-27T01:31:13.730Z,102557.97
2023-01-27T01:33:40.647Z,102566.94
2023-01-27T01:36:19.165Z,102558.03
2023-01-27T01:38:54.334Z,102568.72
2023-01-27T01:41:21.454Z,102561.69
2023-01-27T01:43:49.526Z,102555.53
2023-01-27T01:46:19.225Z,102559.03
2023-01-27T01:48:47.882Z,102551.22
2023-01-27T01:51:35.189Z,102560.09
2023-01-27T01:54:25.957Z,102559.25
2023-01-27T01:56:58.111Z,102565.63
2023-01-27T01:59:32.366Z,102568.41
2023-01-27T02:02:03.660Z,102379.88
2023-01-27T02:04:38.836Z,102569.34
2023-01-27T02:07:13.898Z,102573.88
2023-01-27T02:09:43.123Z,102567.50
2023-01-27T02:12:10.032Z,102568.59
2023-01-27T02:14:36.669Z,102568.66
2023-01-27T02:17:05.010Z,102570.66
2023-01-27T02:20:00.323Z,102484.56
2023-01-27T02:22:51.337Z,102574.09
2023-01-27T02:25:35.037Z,102562.66
2023-01-27T02:28:08.212Z,102566.19
2023-01-27T02:30:35.288Z,102557.81
2023-01-27T02:33:02.015Z,102585.16
2023-01-27T02:35:39.335Z,102526.34
2023-01-27T02:38:13.747Z,102578.28
2023-01-27T02:40:43.059Z,102586.53
2023-01-27T02:43:09.664Z,102587.94
2023-01-27T02:45:36.198Z,102588.00
2023-01-27T02:48:03.140Z,102593.47
2023-01-27T02:50:29.860Z,102589.16
2023-01-27T02:52:58.661Z,102583.38
2023-01-27T02:55:25.321Z,102589.69
2023-01-27T02:57:51.918Z,102583.75
2023-01-27T03:00:18.686Z,102580.84
2023-01-27T03:02:45.290Z,102594.31
2023-01-27T03:05:12.290Z,102516.94
2023-01-27T03:07:39.027Z,102594.19
2023-01-27T03:10:05.949Z,102582.16
2023-01-27T03:12:32.545Z,102592.72
2023-01-27T03:15:17.861Z,102535.72
2023-01-27T03:18:03.032Z,102584.84
2023-01-27T03:20:29.627Z,102582.22
2023-01-27T03:22:56.416Z,102608.56
2023-01-27T03:25:23.024Z,102596.03
2023-01-27T03:27:49.996Z,102612.97
2023-01-27T03:30:16.621Z,102599.44
2023-01-27T03:32:46.773Z,102616.78
2023-01-27T03:35:15.523Z,102617.59
2023-01-27T03:38:01.657Z,102619.44
2023-01-27T03:40:47.239Z,102617.66
2023-01-27T03:43:32.421Z,102618.56
2023-01-27T03:46:17.685Z,102619.38
2023-01-27T03:48:49.689Z,102599.09
2023-01-27T03:51:17.499Z,102629.38
2023-01-27T03:53:44.356Z,102625.78
2023-01-27T03:56:11.214Z,102620.47
2023-01-27T03:58:38.450Z,102582.69
2023-01-27T04:01:14.906Z,102624.03
2023-01-27T04:04:00.955Z,102616.94
2023-01-27T04:06:48.866Z,102605.56
2023-01-27T04:09:27.460Z,102615.44
2023-01-27T04:11:55.398Z,102627.88
2023-01-27T04:14:31.086Z,102631.59
2023-01-27T04:17:00.624Z,102630.00
2023-01-27T04:19:27.750Z,102628.97
2023-01-27T04:21:55.060Z,102633.56
2023-01-27T04:24:24.545Z,102628.00
2023-01-27T04:26:59.887Z,102629.03
2023-01-27T04:29:29.224Z,102617.41
2023-01-27T04:31:58.491Z,102631.03
2023-01-27T04:34:28.204Z,102539.19
2023-01-27T04:36:55.927Z,102614.72
2023-01-27T04:39:22.816Z,102628.66
2023-01-27T04:41:49.806Z,102611.09
2023-01-27T04:44:16.756Z,102549.56
2023-01-27T04:46:43.324Z,102648.00
2023-01-27T04:49:10.145Z,102649.78
2023-01-27T04:51:37.288Z,102640.75
2023-01-27T04:54:05.568Z,102651.44
2023-01-27T04:56:41.319Z,102653.16
2023-01-27T04:59:12.729Z,102634.94
2023-01-27T05:01:39.487Z,102657.66
2023-01-27T05:04:06.227Z,102659.34
2023-01-27T05:06:32.943Z,102634.50
2023-01-27T05:08:59.740Z,102641.59
2023-01-27T05:11:28.861Z,102654.69
2023-01-27T05:13:55.471Z,102644.84
2023-01-27T05:16:24.307Z,102648.34
2023-01-27T05:18:52.587Z,102639.56
2023-01-27T05:21:22.881Z,102656.41
2023-01-27T05:23:50.069Z,102655.66
2023-01-27T05:26:23.057Z,102646.72
2023-01-27T05:28:50.666Z,102634.38
2023-01-27T05:31:22.685Z,102658.00
2023-01-27T05:33:51.630Z,102639.50
2023-01-27T05:36:23.104Z,102664.19
2023-01-27T05:38:51.911Z,102661.47
2023-01-27T05:41:22.301Z,102663.22
2023-01-27T05:43:53.623Z,102672.22
2023-01-27T05:46:23.293Z,102676.59
2023-01-27T05:48:52.476Z,102673.78
2023-01-27T05:51:21.904Z,102664.38
2023-01-27T05:53:48.988Z,102680.03
2023-01-27T05:56:18.551Z,102684.59
2023-01-27T05:58:45.669Z,102644.97
2023-01-27T06:01:13.878Z,102690.84
2023-01-27T06:03:41.118Z,102667.09
2023-01-27T06:06:09.685Z,102684.59
2023-01-27T06:08:37.059Z,102703.50
2023-01-27T06:11:06.988Z,102688.22
2023-01-27T06:13:36.022Z,102692.56
2023-01-27T06:16:04.103Z,102693.50
2023-01-27T06:18:31.191Z,102651.31
2023-01-27T06:21:01.841Z,102704.19
2023-01-27T06:23:28.976Z,102710.56
2023-01-27T06:25:56.890Z,102718.66
2023-01-27T06:28:29.289Z,102707.91
2023-01-27T06:30:57.088Z,102646.09
2023-01-27T06:33:23.767Z,102450.13
2023-01-27T06:35:50.384Z,102713.94
2023-01-27T06:38:17.023Z,102715.66
2023-01-27T06:40:44.202Z,102702.28
2023-01-27T06:43:14.329Z,102697.84
2023-01-27T06:45:41.459Z,102710.25
2023-01-27T06:48:10.798Z,102664.69
2023-01-27T06:50:37.622Z,102724.63
2023-01-27T06:53:07.423Z,102722.78
2023-01-27T06:55:35.604Z,102711.38
2023-01-27T06:58:05.065Z,102720.81
2023-01-27T07:00:31.782Z,102703.63
2023-01-27T07:02:58.403Z,102719.09
2023-01-27T07:05:25.441Z,102588.34
2023-01-27T07:07:52.125Z,102713.19
2023-01-27T07:10:19.054Z,102729.00
2023-01-27T07:12:46.861Z,102679.44
2023-01-27T07:15:16.138Z,102698.84
2023-01-27T07:17:42.831Z,102688.34
2023-01-27T07:20:13.303Z,102669.91
2023-01-27T07:22:39.974Z,102728.06
2023-01-27T07:25:07.032Z,102719.09
2023-01-27T07:27:33.696Z,102716.38
2023-01-27T07:30:00.341Z,102720.81
2023-01-27T07:32:28.362Z,102723.72
2023-01-27T07:34:55.202Z,102733.41
2023-01-27T07:37:21.831Z,102736.13
2023-01-27T07:39:48.783Z,102712.56
2023-01-27T07:42:15.395Z,102740.56
2023-01-27T07:44:42.070Z,102743.25
2023-01-27T07:47:08.652Z,102743.31
2023-01-27T07:49:37.831Z,102732.66
2023-01-27T07:52:04.599Z,102724.13
2023-01-27T07:54:31.180Z,102746.13
2023-01-27T07:57:00.513Z,102742.44
2023-01-27T07:59:27.746Z,102750.56
2023-01-27T08:01:54.384Z,102739.88
2023-01-27T08:04:20.964Z,102742.44
2023-01-27T08:06:47.651Z,102732.94
2023-01-27T08:09:14.297Z,102742.44
2023-01-27T08:11:40.928Z,102745.84
2023-01-27T08:14:07.513Z,102758.41
2023-01-27T08:16:35.190Z,102727.53
2023-01-27T08:19:04.189Z,102752.09
2023-01-27T08:21:33.044Z,102727.59
2023-01-27T08:24:00.475Z,102746.75
2023-01-27T08:26:27.565Z,102766.41
2023-01-27T08:28:54.166Z,102754.25
2023-01-27T08:31:20.867Z,102753.94
2023-01-27T08:33:52.949Z,102768.09
2023-01-27T08:36:20.936Z,102775.31
2023-01-27T08:38:52.839Z,102787.00
2023-01-27T08:41:25.196Z,102791.44
2023-01-27T08:43:52.154Z,102781.59
2023-01-27T08:46:21.201Z,102767.03
2023-01-27T08:48:49.190Z,102781.13
2023-01-27T08:51:15.821Z,102803.34
2023-01-27T08:53:44.818Z,102805.06
2023-01-27T08:56:14.532Z,102717.09
2023-01-27T08:58:42.112Z,102807.91
2023-01-27T09:01:12.257Z,102799.06
2023-01-27T09:03:41.646Z,102808.66
2023-01-27T09:06:10.144Z,102789.09
2023-01-27T09:08:40.001Z,102811.44
2023-01-27T09:11:16.170Z,102806.97
2023-01-27T09:13:45.565Z,102810.69
2023-01-27T09:16:14.532Z,102808.09
2023-01-27T09:18:42.524Z,102809.75
2023-01-27T09:21:10.239Z,102822.53
2023-01-27T09:23:36.871Z,102827.88
2023-01-27T09:26:03.535Z,102831.38
2023-01-27T09:28:30.199Z,102831.31
2023-01-27T09:30:58.503Z,102825.09
2023-01-27T09:33:28.728Z,102830.56
2023-01-27T09:36:03.798Z,102817.59
2023-01-27T09:38:34.943Z,102822.94
2023-01-27T09:41:29.189Z,102838.56
2023-01-27T09:43:58.684Z,102838.50
2023-01-27T09:46:38.772Z,102707.31
2023-01-27T09:49:33.471Z,102848.47
2023-01-27T09:52:18.593Z,102847.53
2023-01-27T09:55:16.805Z,102852.09
2023-01-27T09:57:55.871Z,102856.66
2023-01-27T10:00:45.051Z,102855.84
2023-01-27T10:03:30.985Z,102836.28
2023-01-27T10:06:12.608Z,102854.00
2023-01-27T10:09:22.997Z,102851.38
2023-01-27T10:11:55.457Z,102845.16
2023-01-27T10:14:47.107Z,102858.59
2023-01-27T10:17:16.560Z,102854.13
2023-01-27T10:19:59.249Z,102827.84
2023-01-27T10:22:41.859Z,102831.88
2023-01-27T10:25:25.442Z,102853.94
2023-01-27T10:27:58.387Z,102841.31
2023-01-27T10:30:38.082Z,102855.66
2023-01-27T10:33:12.000Z,102844.97
2023-01-27T10:35:48.879Z,102831.94
2023-01-27T10:38:33.696Z,102854.84
2023-01-27T10:41:14.905Z,102830.13
2023-01-27T10:44:09.344Z,102850.50
2023-01-27T10:46:35.848Z,102846.00
2023-01-27T10:49:13.130Z,102823.56
2023-01-27T10:51:47.542Z,102811.88
2023-01-27T10:54:41.230Z,102830.16
2023-01-27T10:57:14.828Z,102827.25
2023-01-27T11:00:13.994Z,102839.47
2023-01-27T11:02:57.403Z,102840.28
2023-01-27T11:05:48.428Z,102830.72
2023-01-27T11:08:23.490Z,102838.75
2023-01-27T11:11:13.989Z,102836.06
2023-01-27T11:13:43.364Z,102833.16
2023-01-27T11:16:20.394Z,102807.47
2023-01-27T11:18:54.119Z,102833.09
2023-01-27T11:21:28.212Z,102845.63
2023-01-27T11:24:00.588Z,102828.38
2023-01-27T11:26:48.219Z,102827.44
2023-01-27T11:29:33.675Z,102825.66
2023-01-27T11:32:27.784Z,102822.94
2023-01-27T11:35:13.280Z,102815.63
2023-01-27T11:37:48.992Z,102824.59
2023-01-27T11:40:37.714Z,102818.25
2023-01-27T11:43:05.075Z,102820.72
2023-01-27T11:45:35.706Z,102785.22
2023-01-27T11:48:13.971Z,102812.28
2023-01-27T11:50:42.191Z,102803.34
2023-01-27T11:53:29.521Z,102804.28
2023-01-27T11:56:00.703Z,102792.66
2023-01-27T11:58:47.399Z,102796.78
2023-01-27T12:01:21.728Z,102802.13
2023-01-27T12:04:06.951Z,102610.88
2023-01-27T12:06:43.732Z,102749.84
2023-01-27T12:09:34.517Z,102801.78
2023-01-27T12:12:10.541Z,102801.06
2023-01-27T12:14:39.678Z,102799.25
2023-01-27T12:17:08.574Z,102799.97
2023-01-27T12:19:41.048Z,102769.88
2023-01-27T12:22:17.131Z,102805.25
2023-01-27T12:24:50.008Z,102794.78
2023-01-27T12:27:31.781Z,102792.66
2023-01-27T12:30:08.170Z,102777.03
2023-01-27T12:32:47.078Z,102784.81
2023-01-27T12:35:36.488Z,102780.84
2023-01-27T12:38:24.257Z,102786.31
2023-01-27T12:41:01.815Z,102767.16
2023-01-27T12:43:31.937Z,102781.97
2023-01-27T12:46:20.678Z,102778.47
2023-01-27T12:48:54.683Z,102779.19
2023-01-27T12:51:23.910Z,102781.84
2023-01-27T12:53:51.461Z,102779.81
2023-01-27T12:56:22.650Z,102760.19
2023-01-27T12:58:55.306Z,102787.78
2023-01-27T13:01:29.065Z,102751.41
2023-01-27T13:04:16.139Z,102770.63
2023-01-27T13:06:47.720Z,102779.66
2023-01-27T13:09:23.853Z,102757.56
2023-01-27T13:11:50.520Z,102765.22
2023-01-27T13:14:18.395Z,102766.81
2023-01-27T13:16:59.122Z,102769.59
2023-01-27T13:19:43.119Z,102772.16
2023-01-27T13:22:19.168Z,102760.66
2023-01-27T13:24:50.601Z,102750.84
2023-01-27T13:27:24.727Z,102770.47
2023-01-27T13:30:07.464Z,102769.31
2023-01-27T13:32:36.870Z,102776.44
2023-01-27T13:35:19.585Z,102781.78
2023-01-27T13:38:00.766Z,102771.69
2023-01-27T13:40:44.786Z,102769.78
2023-01-27T13:43:20.431Z,102769.63
2023-01-27T13:46:17.267Z,102745.81
2023-01-27T13:48:49.110Z,102768.75
2023-01-27T13:51:22.189Z,102771.78
2023-01-27T13:53:57.316Z,102761.91
2023-01-27T13:56:35.324Z,102766.50
2023-01-27T13:59:08.949Z,102772.59
2023-01-27T14:02:14.790Z,102773.38
2023-01-27T14:05:03.207Z,102775.97
2023-01-27T14:08:09.098Z,102773.25
2023-01-27T14:10:42.100Z,102781.44
2023-01-27T14:13:42.139Z,102776.91
2023-01-27T14:16:32.137Z,102782.41
2023-01-27T14:19:26.096Z,102717.28
2023-01-27T14:22:03.344Z,102757.03
2023-01-27T14:24:39.087Z,102778.06
2023-01-27T14:27:18.061Z,102776.25
2023-01-27T14:30:06.302Z,102785.47
2023-01-27T14:32:45.112Z,102775.66
2023-01-27T14:35:32.950Z,102792.75
2023-01-27T14:38:26.931Z,102727.84
2023-01-27T14:41:23.027Z,102784.88
2023-01-27T14:44:01.095Z,102791.28
2023-01-27T14:46:56.197Z,102792.22
2023-01-27T14:49:45.425Z,102801.47
2023-01-27T14:52:37.703Z,102792.41
2023-01-27T14:55:22.531Z,102796.03
2023-01-27T14:58:18.415Z,102777.63
2023-01-27T15:01:08.469Z,102804.16
2023-01-27T15:03:55.209Z,102799.75
2023-01-27T15:06:24.803Z,102802.31
2023-01-27T15:09:18.877Z,102811.34
2023-01-27T15:12:03.628Z,102818.63
2023-01-27T15:15:03.531Z,102805.38
2023-01-27T15:17:42.548Z,102814.53
2023-01-27T15:20:35.162Z,102826.34
2023-01-27T15:23:09.798Z,102826.47
2023-01-27T15:25:48.469Z,102827.59
2023-01-27T15:28:20.154Z,102827.66
2023-01-27T15:31:05.772Z,102826.91
2023-01-27T15:33:54.188Z,102836.78
2023-01-27T15:36:29.949Z,102835.16
2023-01-27T15:39:09.222Z,102834.53
2023-01-27T15:42:03.639Z,102841.00
2023-01-27T15:44:32.374Z,102829.69
2023-01-27T15:47:23.984Z,102836.22
2023-01-27T15:50:04.536Z,102848.63
2023-01-27T15:52:41.803Z,102848.69
2023-01-27T15:55:23.906Z,102849.75
2023-01-27T15:58:00.901Z,102846.38
2023-01-27T16:00:35.331Z,102848.34
2023-01-27T16:03:04.479Z,102834.38
2023-01-27T16:05:53.589Z,102859.34
2023-01-27T16:08:20.915Z,102812.69
2023-01-27T16:10:47.581Z,102842.38
2023-01-27T16:13:27.946Z,102854.09
2023-01-27T16:16:19.459Z,102850.97
2023-01-27T16:19:11.270Z,102849.34
2023-01-27T16:21:50.011Z,102851.16
2023-01-27T16:24:26.703Z,102827.25
2023-01-27T16:27:30.994Z,102849.75
2023-01-27T16:30:06.152Z,102831.44
2023-01-27T16:32:45.413Z,102837.66
2023-01-27T16:35:21.415Z,102862.78
2023-01-27T16:38:06.343Z,102856.28
2023-01-27T16:40:37.098Z,102851.72
2023-01-27T16:43:15.254Z,102875.72
2023-01-27T16:45:45.715Z,102725.47
2023-01-27T16:48:47.835Z,102883.00
2023-01-27T16:51:17.475Z,102888.41
2023-01-27T16:53:49.553Z,102867.97
2023-01-27T16:56:42.450Z,102894.00
2023-01-27T16:59:18.341Z,102897.66
2023-01-27T17:01:57.076Z,102889.72
2023-01-27T17:04:26.899Z,102838.03
2023-01-27T17:07:03.089Z,102896.97
2023-01-27T17:09:35.494Z,102907.59
2023-01-27T17:12:02.117Z,102885.66
2023-01-27T17:14:32.725Z,102897.91
2023-01-27T17:17:02.264Z,102894.44
2023-01-27T17:19:34.484Z,102900.53
2023-01-27T17:22:13.728Z,102907.72
2023-01-27T17:24:52.946Z,102905.94
2023-01-27T17:27:36.595Z,102901.63
2023-01-27T17:30:26.278Z,102915.78
2023-01-27T17:32:59.048Z,102913.25
2023-01-27T17:35:32.997Z,102928.44
2023-01-27T17:38:20.167Z,102927.47
2023-01-27T17:40:49.581Z,102928.44
2023-01-27T17:43:37.624Z,102925.84
2023-01-27T17:46:15.098Z,102924.81
2023-01-27T17:48:48.548Z,102928.38
2023-01-27T17:51:21.078Z,102914.34
2023-01-27T17:53:50.174Z,102931.00
2023-01-27T17:56:23.240Z,102926.59
2023-01-27T17:58:55.484Z,102927.47
2023-01-27T18:01:22.847Z,102909.88
2023-01-27T18:03:55.019Z,102939.25
2023-01-27T18:06:25.099Z,102923.25
2023-01-27T18:08:55.946Z,102937.41
2023-01-27T18:11:31.354Z,102936.53
2023-01-27T18:14:13.288Z,102949.22
2023-01-27T18:16:39.938Z,102909.41
2023-01-27T18:19:22.478Z,102947.44
2023-01-27T18:22:00.703Z,102938.56
2023-01-27T18:24:28.531Z,102946.69
2023-01-27T18:26:55.184Z,102944.78
2023-01-27T18:29:30.815Z,102930.00
2023-01-27T18:32:07.898Z,102928.91
2023-01-27T18:34:46.168Z,102947.44
2023-01-27T18:37:32.922Z,102943.06
2023-01-27T18:40:01.673Z,102953.88
2023-01-27T18:42:30.452Z,102945.84
2023-01-27T18:45:00.299Z,102954.84
2023-01-27T18:47:32.269Z,102953.13
2023-01-27T18:50:00.708Z,102967.47
2023-01-27T18:52:28.723Z,102882.91
2023-01-27T18:55:00.632Z,102955.03
2023-01-27T18:57:27.762Z,102969.31
2023-01-27T18:59:54.539Z,102961.31
2023-01-27T19:02:21.609Z,102972.00
2023-01-27T19:04:48.387Z,102982.06
2023-01-27T19:07:17.194Z,102975.75
2023-01-27T19:09:45.449Z,102980.28
2023-01-27T19:12:12.333Z,102991.09
2023-01-27T19:14:41.523Z,102986.78
2023-01-27T19:17:17.957Z,102990.25
2023-01-27T19:19:44.588Z,102993.00
2023-01-27T19:22:19.663Z,102984.19
2023-01-27T19:24:46.285Z,102988.63
2023-01-27T19:27:14.679Z,102967.72
2023-01-27T19:29:41.697Z,102996.00
2023-01-27T19:32:12.983Z,102979.38
2023-01-27T19:34:39.626Z,102995.19
2023-01-27T19:37:16.263Z,102923.88
2023-01-27T19:39:45.267Z,102984.78
2023-01-27T19:42:14.210Z,103009.69
2023-01-27T19:44:40.847Z,102995.47
2023-01-27T19:47:14.201Z,102974.19
2023-01-27T19:49:44.124Z,103005.09
2023-01-27T19:52:10.802Z,102977.84
2023-01-27T19:54:37.522Z,103015.03
2023-01-27T19:57:12.551Z,103002.66
2023-01-27T19:59:39.274Z,103002.66
2023-01-27T20:02:10.081Z,103015.84
2023-01-27T20:04:42.097Z,103017.69
2023-01-27T20:07:12.465Z,102986.72
2023-01-27T20:09:39.252Z,102992.94
2023-01-27T20:12:05.973Z,103014.22
2023-01-27T20:14:32.841Z,103003.63
2023-01-27T20:17:00.065Z,103009.81
2023-01-27T20:19:26.926Z,103016.97
2023-01-27T20:21:54.159Z,103013.47
2023-01-27T20:24:23.075Z,102997.69
2023-01-27T20:26:49.736Z,103012.63
2023-01-27T20:29:16.403Z,103016.41
2023-01-27T20:31:43.138Z,103019.03
2023-01-27T20:34:09.717Z,103011.91
2023-01-27T20:36:37.011Z,103006.50
2023-01-27T20:39:04.221Z,103016.50
2023-01-27T20:41:30.831Z,103009.28
2023-01-27T20:44:00.666Z,102974.34
2023-01-27T20:46:28.580Z,102994.50
2023-01-27T20:48:55.446Z,103014.91
2023-01-27T20:51:22.001Z,103015.69
2023-01-27T20:53:51.061Z,103018.38
2023-01-27T20:56:21.832Z,103014.69
2023-01-27T20:58:48.934Z,103016.56
2023-01-27T21:01:20.674Z,103009.31
2023-01-27T21:03:50.421Z,103015.69
2023-01-27T21:06:20.260Z,103012.13
2023-01-27T21:08:49.767Z,103014.03
2023-01-27T21:11:18.683Z,102911.75
2023-01-27T21:13:45.605Z,103012.25
2023-01-27T21:16:12.535Z,103012.25
2023-01-27T21:18:39.410Z,102996.41
2023-01-27T21:21:06.316Z,103015.81
2023-01-27T21:23:34.528Z,102966.53
2023-01-27T21:26:09.429Z,103014.09
2023-01-27T21:28:36.620Z,103014.91
2023-01-27T21:31:11.789Z,102991.97
2023-01-27T21:33:41.658Z,103009.53
2023-01-27T21:36:12.101Z,102936.44
2023-01-27T21:38:39.674Z,103011.38
2023-01-27T21:41:37.616Z,103005.09
2023-01-27T21:44:24.614Z,102963.72
2023-01-27T21:46:51.248Z,102986.69
2023-01-27T21:49:17.833Z,102995.38
2023-01-27T21:51:44.468Z,102985.59
2023-01-27T21:54:13.551Z,102995.38
2023-01-27T21:56:40.156Z,102993.63
2023-01-27T21:59:06.778Z,102983.09
2023-01-27T22:01:34.519Z,102991.00
2023-01-27T22:04:01.191Z,102979.66
2023-01-27T22:06:27.808Z,102988.47
2023-01-27T22:08:54.415Z,102985.06
2023-01-27T22:11:21.032Z,102895.09
2023-01-27T22:13:47.611Z,102985.06
2023-01-27T22:16:15.453Z,102984.19
2023-01-27T22:18:42.717Z,102984.28
2023-01-27T22:21:09.770Z,102989.59
2023-01-27T22:23:36.377Z,102981.69
2023-01-27T22:26:06.775Z,102982.47
2023-01-27T22:28:33.409Z,102989.69
2023-01-27T22:31:03.180Z,102961.38
2023-01-27T22:33:29.998Z,102973.81
2023-01-27T22:36:04.492Z,102973.69
2023-01-27T22:38:31.360Z,102976.50
2023-01-27T22:41:03.378Z,102983.66
2023-01-27T22:43:30.046Z,102954.41
2023-01-27T22:46:00.454Z,102950.16
2023-01-27T22:48:27.030Z,102961.56
2023-01-27T22:50:53.642Z,102958.84
2023-01-27T22:53:20.346Z,102979.31
2023-01-27T22:55:46.890Z,102973.03
2023-01-27T22:58:13.469Z,102973.91
2023-01-27T23:00:42.484Z,102863.75
2023-01-27T23:03:09.068Z,102974.13
2023-01-27T23:05:35.610Z,102977.66
2023-01-27T23:08:02.163Z,102979.59
2023-01-27T23:10:29.109Z,102949.69
2023-01-27T23:12:55.720Z,102976.13
2023-01-27T23:15:24.848Z,102979.69
2023-01-27T23:17:51.575Z,102980.53
2023-01-27T23:20:18.210Z,102967.53
2023-01-27T23:22:44.820Z,102979.63
2023-01-27T23:25:11.892Z,102977.00
2023-01-27T23:27:42.370Z,102960.25
2023-01-27T23:30:11.085Z,102983.31
2023-01-27T23:32:38.257Z,102975.34
2023-01-27T23:35:05.459Z,102956.94
2023-01-27T23:37:32.454Z,102962.22
2023-01-27T23:39:59.075Z,102982.44
2023-01-27T23:42:25.608Z,102982.41
2023-01-27T23:44:52.202Z,102976.22
2023-01-27T23:47:18.830Z,102948.88
2023-01-27T23:49:47.668Z,102959.59
2023-01-27T23:52:14.343Z,102995.13
2023-01-27T23:54:43.241Z,102972.94
2023-01-27T23:57:09.851Z,102989.78
2023-01-27T23:59:36.523Z,102976.34
